Time;durP1;ratioP1;P1;durP2;ratioP2;P2;SDS_P1;SDS_P2;PMS_P1;PMS_P2;Temp;Humidity;BMP_temperature;BMP_pressure;BME280_temperature;BME280_humidity;BME280_pressure;Samples;Min_cycle;Max_cycle;Signal;HPM_P1;HPM_P2
2022/04/15 00:00:16;;;;;;;2.80;2.60;;;;;;;;;;5116240;28;20223;-85
2022/04/15 00:02:43;;;;;;;3.08;2.75;;;;;;;;;;5115632;28;20231;-86
2022/04/15 00:07:56;;;;;;;3.60;2.95;;;;;;;;;;5115838;28;20276;-87
2022/04/15 00:10:23;;;;;;;3.90;3.50;;;;;;;;;;5114467;28;20216;-84
2022/04/15 00:12:51;;;;;;;5.53;4.00;;;;;;;;;;5113882;28;20192;-87
2022/04/15 00:15:19;;;;;;;3.28;2.92;;;;;;;;;;5114195;28;20213;-85
2022/04/15 00:17:47;;;;;;;4.88;3.60;;;;;;;;;;5113962;28;20200;-87
2022/04/15 00:20:15;;;;;;;3.88;3.58;;;;;;;;;;5113283;28;20220;-84
2022/04/15 00:22:42;;;;;;;4.63;4.22;;;;;;;;;;5113912;28;20224;-85
2022/04/15 00:25:11;;;;;;;5.07;4.50;;;;;;;;;;5115106;28;20521;-87
2022/04/15 00:27:38;;;;;;;7.55;5.38;;;;;;;;;;5113465;28;20614;-87
2022/04/15 00:30:08;;;;;;;5.00;4.60;;;;;;;;;;5113801;28;20227;-86
2022/04/15 00:32:37;;;;;;;6.28;5.68;;;;;;;;;;5113836;28;20196;-86
2022/04/15 00:35:05;;;;;;;5.65;5.15;;;;;;;;;;5114248;28;20196;-87
2022/04/15 00:37:33;;;;;;;6.22;5.25;;;;;;;;;;5113120;28;20200;-86
2022/04/15 00:40:02;;;;;;;6.75;4.90;;;;;;;;;;5113413;28;20224;-87
2022/04/15 00:42:30;;;;;;;6.93;5.80;;;;;;;;;;5113881;28;20219;-87
2022/04/15 00:44:58;;;;;;;6.50;5.50;;;;;;;;;;5113850;28;20200;-87
2022/04/15 00:47:39;;;;;;;5.72;4.95;;;;;;;;;;5114484;28;20206;-87
2022/04/15 00:50:07;;;;;;;5.90;5.40;;;;;;;;;;5113277;28;20224;-87
2022/04/15 00:52:39;;;;;;;6.43;5.80;;;;;;;;;;5109897;28;20207;-86
2022/04/15 00:55:08;;;;;;;8.80;5.40;;;;;;;;;;5100242;28;20554;-85
2022/04/15 00:57:36;;;;;;;5.80;5.30;;;;;;;;;;5099871;28;20200;-87
2022/04/15 01:00:07;;;;;;;6.18;5.65;;;;;;;;;;5099986;28;20223;-85
2022/04/15 01:02:35;;;;;;;5.93;5.32;;;;;;;;;;5100237;28;20250;-87
2022/04/15 01:05:07;;;;;;;5.63;4.82;;;;;;;;;;5099541;28;20196;-87
2022/04/15 01:07:36;;;;;;;6.38;5.60;;;;;;;;;;5099431;28;20185;-87
2022/04/15 01:10:08;;;;;;;5.22;4.72;;;;;;;;;;5099427;28;20592;-87
2022/04/15 01:12:37;;;;;;;4.65;3.90;;;;;;;;;;5099739;28;20277;-87
2022/04/15 01:15:07;;;;;;;4.63;4.22;;;;;;;;;;5098990;28;20208;-83
2022/04/15 01:17:35;;;;;;;6.15;4.15;;;;;;;;;;5098907;28;20184;-87
2022/04/15 01:20:05;;;;;;;5.82;3.95;;;;;;;;;;5098905;28;20692;-86
2022/04/15 01:22:37;;;;;;;5.18;4.28;;;;;;;;;;5098160;28;20227;-88
2022/04/15 01:25:07;;;;;;;5.35;4.70;;;;;;;;;;5099151;28;20203;-87
2022/04/15 01:27:36;;;;;;;4.88;3.90;;;;;;;;;;5098975;28;20200;-87
2022/04/15 01:30:04;;;;;;;5.90;5.32;;;;;;;;;;5098352;28;20208;-87
2022/04/15 01:32:31;;;;;;;6.40;4.85;;;;;;;;;;5098968;28;20200;-87
2022/04/15 01:34:58;;;;;;;5.32;4.82;;;;;;;;;;5099440;28;20200;-86
2022/04/15 01:37:26;;;;;;;6.75;6.05;;;;;;;;;;5102675;28;20196;-85
2022/04/15 01:39:53;;;;;;;5.05;4.53;;;;;;;;;;5099124;28;20227;-86
2022/04/15 01:42:25;;;;;;;4.25;3.95;;;;;;;;;;5099322;28;20231;-87
2022/04/15 01:44:57;;;;;;;4.20;3.80;;;;;;;;;;5099646;28;20204;-84
2022/04/15 01:47:24;;;;;;;5.63;3.60;;;;;;;;;;5098630;28;20258;-86
2022/04/15 01:49:54;;;;;;;4.43;4.03;;;;;;;;;;5098475;28;20224;-86
2022/04/15 01:52:21;;;;;;;5.50;5.00;;;;;;;;;;5098869;28;20201;-87
2022/04/15 01:54:55;;;;;;;5.05;4.65;;;;;;;;;;5099288;28;20196;-85
2022/04/15 01:57:24;;;;;;;5.05;4.40;;;;;;;;;;5099250;28;20558;-84
2022/04/15 01:59:54;;;;;;;5.15;4.60;;;;;;;;;;5097566;28;20228;-86
2022/04/15 02:02:22;;;;;;;5.40;4.90;;;;;;;;;;5098704;28;20224;-85
2022/04/15 02:04:51;;;;;;;4.03;3.53;;;;;;;;;;5097595;28;20208;-86
2022/04/15 02:07:18;;;;;;;4.50;4.10;;;;;;;;;;5098081;28;20204;-86
2022/04/15 02:09:45;;;;;;;4.43;4.07;;;;;;;;;;5098436;28;20239;-86
2022/04/15 02:12:13;;;;;;;5.90;4.57;;;;;;;;;;5098856;28;20207;-83
2022/04/15 02:14:41;;;;;;;4.97;4.50;;;;;;;;;;5099434;28;20294;-84
2022/04/15 02:17:09;;;;;;;4.72;4.28;;;;;;;;;;5099780;28;20692;-85
2022/04/15 02:19:36;;;;;;;4.65;4.22;;;;;;;;;;5099180;28;20220;-86
2022/04/15 02:22:04;;;;;;;6.15;4.78;;;;;;;;;;5098863;28;20628;-85
2022/04/15 02:24:31;;;;;;;4.57;4.25;;;;;;;;;;5098430;28;20208;-85
2022/04/15 02:26:58;;;;;;;5.35;4.88;;;;;;;;;;5099264;28;20211;-87
2022/04/15 02:29:26;;;;;;;5.75;5.15;;;;;;;;;;5099801;28;20216;-86
2022/04/15 02:31:55;;;;;;;6.75;4.70;;;;;;;;;;5099116;28;20200;-87
2022/04/15 02:34:22;;;;;;;5.60;4.95;;;;;;;;;;5099834;28;20192;-85
2022/04/15 02:36:49;;;;;;;6.68;5.85;;;;;;;;;;5099949;28;20203;-85
2022/04/15 02:39:17;;;;;;;5.15;4.75;;;;;;;;;;5099142;28;20220;-86
2022/04/15 02:41:44;;;;;;;5.93;5.43;;;;;;;;;;5098910;28;20239;-85
2022/04/15 02:44:12;;;;;;;5.93;5.43;;;;;;;;;;5098716;28;20224;-84
2022/04/15 02:46:39;;;;;;;7.25;5.32;;;;;;;;;;5099497;28;20214;-86
2022/04/15 02:49:08;;;;;;;7.32;5.88;;;;;;;;;;5098718;28;20223;-86
2022/04/15 02:51:36;;;;;;;5.20;4.70;;;;;;;;;;5098535;28;20200;-86
2022/04/15 02:54:03;;;;;;;5.53;5.03;;;;;;;;;;5099436;28;20200;-86
2022/04/15 02:56:31;;;;;;;6.15;4.85;;;;;;;;;;5099617;28;20212;-85
2022/04/15 02:58:58;;;;;;;5.28;4.78;;;;;;;;;;5099543;28;20216;-85
2022/04/15 03:01:25;;;;;;;5.13;4.70;;;;;;;;;;5098981;28;20206;-85
2022/04/15 03:03:52;;;;;;;4.68;4.30;;;;;;;;;;5099400;28;20220;-85
2022/04/15 03:06:21;;;;;;;5.50;4.45;;;;;;;;;;5097674;28;20216;-84
2022/04/15 03:08:48;;;;;;;5.40;4.90;;;;;;;;;;5098117;28;20200;-88
2022/04/15 03:11:16;;;;;;;5.00;4.50;;;;;;;;;;5098692;28;20612;-85
2022/04/15 03:13:44;;;;;;;4.13;3.78;;;;;;;;;;5098785;28;20203;-87
2022/04/15 03:16:12;;;;;;;4.35;4.05;;;;;;;;;;5097593;28;20211;-87
2022/04/15 03:18:39;;;;;;;4.07;3.78;;;;;;;;;;5098121;28;20618;-87
2022/04/15 03:21:07;;;;;;;4.55;3.67;;;;;;;;;;5098901;28;20211;-87
2022/04/15 03:23:35;;;;;;;3.95;3.65;;;;;;;;;;5097462;28;20232;-87
2022/04/15 03:26:03;;;;;;;3.72;3.42;;;;;;;;;;5098089;28;20206;-86
2022/04/15 03:28:30;;;;;;;4.35;3.95;;;;;;;;;;5098333;28;20200;-86
2022/04/15 03:30:58;;;;;;;7.10;3.80;;;;;;;;;;5097572;28;20220;-87
2022/04/15 03:33:25;;;;;;;4.63;3.80;;;;;;;;;;5097713;28;20656;-87
2022/04/15 03:35:52;;;;;;;3.80;3.50;;;;;;;;;;5097947;28;20205;-86
2022/04/15 03:38:20;;;;;;;5.38;4.78;;;;;;;;;;5098552;28;20200;-87
2022/04/15 03:40:48;;;;;;;3.45;3.20;;;;;;;;;;5098024;28;20232;-87
2022/04/15 03:43:16;;;;;;;5.20;4.70;;;;;;;;;;5099164;28;20224;-88
2022/04/15 03:45:43;;;;;;;4.97;4.50;;;;;;;;;;5098897;28;20625;-87
2022/04/15 03:48:10;;;;;;;5.75;5.18;;;;;;;;;;5099583;28;20205;-88
2022/04/15 03:50:38;;;;;;;5.53;5.00;;;;;;;;;;5098663;28;20242;-87
2022/04/15 03:53:05;;;;;;;5.45;4.60;;;;;;;;;;5098205;28;20213;-87
2022/04/15 03:55:32;;;;;;;6.07;5.55;;;;;;;;;;5097694;28;20200;-88
2022/04/15 03:58:01;;;;;;;6.03;5.43;;;;;;;;;;5098494;28;20228;-88
2022/04/15 04:00:28;;;;;;;4.78;4.28;;;;;;;;;;5098829;28;20220;-87
2022/04/15 04:02:56;;;;;;;6.38;5.78;;;;;;;;;;5098342;28;20204;-87
2022/04/15 04:05:24;;;;;;;5.05;4.65;;;;;;;;;;5098088;28;20228;-85
2022/04/15 04:07:52;;;;;;;4.75;4.35;;;;;;;;;;5098196;28;20201;-87
2022/04/15 04:10:20;;;;;;;6.38;5.68;;;;;;;;;;5098521;28;20220;-84
2022/04/15 04:12:48;;;;;;;5.20;4.70;;;;;;;;;;5097731;28;20628;-86
2022/04/15 04:15:17;;;;;;;3.78;3.47;;;;;;;;;;5097292;28;20419;-87
2022/04/15 04:17:46;;;;;;;8.18;4.75;;;;;;;;;;5098288;28;20734;-88
2022/04/15 04:20:16;;;;;;;6.55;4.80;;;;;;;;;;5098025;28;20560;-87
2022/04/15 04:22:43;;;;;;;4.18;3.78;;;;;;;;;;5098380;28;20299;-87
2022/04/15 04:25:12;;;;;;;4.05;3.75;;;;;;;;;;5097981;28;20235;-87
2022/04/15 04:27:40;;;;;;;5.22;4.72;;;;;;;;;;5098640;28;20196;-87
2022/04/15 04:30:12;;;;;;;5.95;5.35;;;;;;;;;;5102144;28;20224;-87
2022/04/15 04:32:41;;;;;;;5.50;4.90;;;;;;;;;;5102801;28;20204;-88
2022/04/15 04:35:09;;;;;;;5.55;4.28;;;;;;;;;;5102173;28;20196;-87
2022/04/15 04:37:37;;;;;;;4.35;3.95;;;;;;;;;;5102761;28;20200;-87
2022/04/15 04:40:06;;;;;;;3.55;3.25;;;;;;;;;;5102182;28;20224;-87
2022/04/15 04:42:33;;;;;;;4.57;4.10;;;;;;;;;;5101205;28;20204;-87
2022/04/15 04:45:01;;;;;;;5.68;4.70;;;;;;;;;;5101865;28;20220;-86
2022/04/15 04:47:30;;;;;;;6.05;5.55;;;;;;;;;;5102109;28;20211;-86
2022/04/15 04:50:01;;;;;;;5.53;5.03;;;;;;;;;;5101153;28;20224;-88
2022/04/15 04:52:28;;;;;;;5.68;4.20;;;;;;;;;;5101699;28;20244;-88
2022/04/15 04:54:56;;;;;;;4.95;4.45;;;;;;;;;;5102956;28;20208;-88
2022/04/15 04:57:23;;;;;;;6.60;5.55;;;;;;;;;;5101450;28;20216;-88
2022/04/15 04:59:50;;;;;;;6.20;5.63;;;;;;;;;;5101965;28;20219;-88
2022/04/15 05:02:18;;;;;;;6.45;5.85;;;;;;;;;;5101553;28;20679;-88
2022/04/15 05:04:45;;;;;;;6.18;5.63;;;;;;;;;;5101467;28;20239;-88
2022/04/15 05:07:14;;;;;;;6.03;5.43;;;;;;;;;;5101656;28;20492;-88
2022/04/15 05:09:43;;;;;;;5.43;4.90;;;;;;;;;;5101821;28;20223;-88
2022/04/15 05:12:11;;;;;;;7.95;7.15;;;;;;;;;;5099883;28;20287;-86
2022/04/15 05:14:38;;;;;;;6.95;5.40;;;;;;;;;;5100255;28;20207;-87
2022/04/15 05:17:06;;;;;;;6.93;6.22;;;;;;;;;;5100507;28;20645;-88
2022/04/15 05:19:33;;;;;;;6.10;5.15;;;;;;;;;;5108050;22;20232;-83
2022/04/15 05:22:00;;;;;;;6.30;5.68;;;;;;;;;;5075412;28;20572;-83
2022/04/15 05:24:29;;;;;;;5.65;5.15;;;;;;;;;;5074986;28;20282;-83
2022/04/15 05:26:57;;;;;;;7.13;5.60;;;;;;;;;;5082534;28;20228;-83
2022/04/15 05:29:24;;;;;;;5.95;5.40;;;;;;;;;;5095120;28;20200;-83
2022/04/15 05:31:52;;;;;;;6.45;5.85;;;;;;;;;;5094800;28;20200;-83
2022/04/15 05:34:19;;;;;;;5.07;4.43;;;;;;;;;;5094509;28;20215;-79
2022/04/15 05:36:46;;;;;;;5.38;4.85;;;;;;;;;;5093878;28;20715;-78
2022/04/15 05:39:13;;;;;;;6.13;5.32;;;;;;;;;;5093655;28;20196;-78
2022/04/15 05:41:42;;;;;;;7.15;6.35;;;;;;;;;;5094027;28;20672;-78
2022/04/15 05:44:12;;;;;;;7.03;6.43;;;;;;;;;;5094489;28;20204;-79
2022/04/15 05:46:42;;;;;;;5.05;4.57;;;;;;;;;;5094205;28;20311;-79
2022/04/15 05:49:13;;;;;;;4.43;4.03;;;;;;;;;;5094221;28;20257;-78
2022/04/15 05:51:42;;;;;;;5.50;4.97;;;;;;;;;;5093998;28;20672;-78
2022/04/15 05:54:09;;;;;;;5.03;4.57;;;;;;;;;;5093931;28;20228;-78
2022/04/15 05:56:37;;;;;;;6.72;4.85;;;;;;;;;;5094094;28;20611;-78
2022/04/15 05:59:06;;;;;;;4.25;3.72;;;;;;;;;;5094430;28;20199;-78
2022/04/15 06:01:34;;;;;;;4.95;4.38;;;;;;;;;;5093895;28;20197;-79
2022/04/15 06:04:01;;;;;;;5.80;5.05;;;;;;;;;;5093863;28;20664;-79
2022/04/15 06:06:28;;;;;;;5.45;4.47;;;;;;;;;;5096377;28;20224;-78
2022/04/15 06:08:56;;;;;;;4.88;4.47;;;;;;;;;;5095654;28;20669;-79
2022/04/15 06:11:23;;;;;;;5.93;4.47;;;;;;;;;;5095834;28;20252;-77
2022/04/15 06:13:51;;;;;;;4.65;4.25;;;;;;;;;;5093998;28;20205;-77
2022/04/15 06:16:21;;;;;;;5.25;4.47;;;;;;;;;;5094433;28;20203;-77
2022/04/15 06:18:49;;;;;;;4.60;4.15;;;;;;;;;;5094055;28;20304;-78
2022/04/15 06:21:16;;;;;;;4.13;3.83;;;;;;;;;;5085275;28;20209;-77
2022/04/15 06:23:44;;;;;;;4.95;3.92;;;;;;;;;;5076018;28;20200;-77
2022/04/15 06:26:11;;;;;;;4.60;4.20;;;;;;;;;;5073780;28;20221;-78
2022/04/15 06:28:38;;;;;;;5.22;4.00;;;;;;;;;;5073717;28;20559;-78
2022/04/15 06:31:05;;;;;;;4.38;3.97;;;;;;;;;;5073757;28;20197;-78
2022/04/15 06:33:36;;;;;;;3.63;3.33;;;;;;;;;;5073402;28;20201;-78
2022/04/15 06:36:05;;;;;;;4.05;3.60;;;;;;;;;;5077222;28;20545;-78
2022/04/15 06:38:33;;;;;;;3.78;3.30;;;;;;;;;;5073587;28;20264;-79
2022/04/15 06:41:00;;;;;;;3.45;3.15;;;;;;;;;;5074465;28;20205;-78
2022/04/15 06:43:28;;;;;;;3.65;3.35;;;;;;;;;;5075412;28;20687;-78
2022/04/15 06:45:56;;;;;;;3.90;3.60;;;;;;;;;;5074827;28;20606;-78
2022/04/15 06:48:24;;;;;;;5.20;4.38;;;;;;;;;;5075163;28;20275;-78
2022/04/15 06:50:53;;;;;;;5.40;4.40;;;;;;;;;;5074252;28;20633;-78
2022/04/15 06:53:23;;;;;;;5.22;4.72;;;;;;;;;;5074120;28;20586;-78
2022/04/15 06:55:50;;;;;;;4.15;3.75;;;;;;;;;;5076172;28;20263;-79
2022/04/15 06:58:18;;;;;;;8.75;4.00;;;;;;;;;;5077024;28;20225;-79
2022/04/15 07:00:46;;;;;;;5.00;4.50;;;;;;;;;;5078139;28;20204;-78
2022/04/15 07:03:14;;;;;;;4.30;3.90;;;;;;;;;;5076178;28;20247;-78
2022/04/15 07:05:42;;;;;;;6.75;3.88;;;;;;;;;;5077821;28;20639;-78
2022/04/15 07:08:11;;;;;;;4.13;3.72;;;;;;;;;;5078011;28;20599;-79
2022/04/15 07:10:38;;;;;;;4.70;3.92;;;;;;;;;;5077828;28;20215;-78
2022/04/15 07:13:06;;;;;;;5.43;4.60;;;;;;;;;;5076316;28;20204;-79
2022/04/15 07:15:33;;;;;;;4.85;4.40;;;;;;;;;;5076414;28;20234;-78
2022/04/15 07:18:03;;;;;;;5.90;4.80;;;;;;;;;;5074463;28;20229;-78
2022/04/15 07:20:31;;;;;;;5.40;4.90;;;;;;;;;;5074912;28;20677;-77
2022/04/15 07:22:58;;;;;;;4.53;4.13;;;;;;;;;;5076349;28;20216;-77
2022/04/15 07:25:27;;;;;;;5.22;4.50;;;;;;;;;;5076142;28;20229;-79
2022/04/15 07:27:56;;;;;;;4.78;4.03;;;;;;;;;;5074522;28;20220;-78
2022/04/15 07:30:24;;;;;;;6.00;4.80;;;;;;;;;;5076490;28;20200;-78
2022/04/15 07:32:52;;;;;;;5.10;4.65;;;;;;;;;;5076655;28;20205;-79
2022/04/15 07:35:19;;;;;;;4.20;3.80;;;;;;;;;;5076534;28;20250;-79
2022/04/15 07:37:47;;;;;;;5.03;4.32;;;;;;;;;;5074596;28;20659;-79
2022/04/15 07:40:14;;;;;;;5.03;4.40;;;;;;;;;;5075081;28;20200;-78
2022/04/15 07:42:43;;;;;;;4.55;4.18;;;;;;;;;;5076326;28;20209;-79
2022/04/15 07:45:11;;;;;;;4.82;4.32;;;;;;;;;;5076656;28;20211;-78
2022/04/15 07:47:38;;;;;;;5.30;4.80;;;;;;;;;;5074822;28;20312;-80
2022/04/15 07:50:07;;;;;;;4.90;4.50;;;;;;;;;;5076200;28;20691;-79
2022/04/15 07:52:35;;;;;;;5.25;4.75;;;;;;;;;;5075677;28;20205;-79
2022/04/15 07:55:03;;;;;;;5.45;5.05;;;;;;;;;;5074251;28;20223;-78
2022/04/15 07:57:30;;;;;;;5.40;4.90;;;;;;;;;;5075729;28;20239;-79
2022/04/15 07:59:59;;;;;;;5.28;4.78;;;;;;;;;;5073717;28;20595;-78
2022/04/15 08:02:26;;;;;;;5.93;5.25;;;;;;;;;;5075170;28;20219;-79
2022/04/15 08:04:54;;;;;;;4.72;4.32;;;;;;;;;;5078886;28;20224;-78
2022/04/15 08:07:22;;;;;;;5.03;4.57;;;;;;;;;;5077116;28;20235;-78
2022/04/15 08:09:49;;;;;;;5.70;5.05;;;;;;;;;;5080328;28;20279;-78
2022/04/15 08:12:17;;;;;;;5.03;4.53;;;;;;;;;;5077865;28;20200;-78
2022/04/15 08:14:44;;;;;;;5.20;4.70;;;;;;;;;;5077784;28;20201;-79
2022/04/15 08:17:12;;;;;;;6.63;6.03;;;;;;;;;;5077311;28;20224;-80
2022/04/15 08:19:40;;;;;;;4.72;4.25;;;;;;;;;;5076912;28;20216;-79
2022/04/15 08:22:09;;;;;;;5.50;5.00;;;;;;;;;;5077423;28;20798;-79
2022/04/15 08:24:42;;;;;;;6.63;5.28;;;;;;;;;;5077076;28;20209;-79
2022/04/15 08:27:09;;;;;;;5.00;4.10;;;;;;;;;;5077635;28;20727;-79
2022/04/15 08:29:38;;;;;;;6.32;4.68;;;;;;;;;;5080761;28;20215;-79
2022/04/15 08:32:08;;;;;;;4.93;4.25;;;;;;;;;;5078626;28;20239;-78
2022/04/15 08:34:37;;;;;;;4.85;4.45;;;;;;;;;;5077326;28;20201;-78
2022/04/15 08:37:05;;;;;;;3.85;3.55;;;;;;;;;;5077077;28;20221;-79
2022/04/15 08:39:32;;;;;;;5.85;4.82;;;;;;;;;;5077545;28;20209;-78
2022/04/15 08:42:00;;;;;;;4.32;4.03;;;;;;;;;;5077521;28;20540;-79
2022/04/15 08:44:28;;;;;;;4.40;4.00;;;;;;;;;;5077407;28;20254;-78
2022/04/15 08:46:55;;;;;;;5.22;3.97;;;;;;;;;;5076385;28;20228;-80
2022/04/15 08:49:24;;;;;;;4.18;3.78;;;;;;;;;;5076795;28;20197;-79
2022/04/15 08:51:53;;;;;;;4.20;3.90;;;;;;;;;;5076885;28;20251;-80
2022/04/15 08:54:20;;;;;;;3.88;3.58;;;;;;;;;;5076700;28;20205;-80
2022/04/15 08:56:48;;;;;;;4.55;3.65;;;;;;;;;;5076950;28;20244;-79
2022/04/15 08:59:15;;;;;;;5.28;4.10;;;;;;;;;;5078223;28;20201;-79
2022/04/15 09:01:43;;;;;;;5.32;4.38;;;;;;;;;;5076901;28;20208;-79
2022/04/15 09:04:11;;;;;;;4.70;3.70;;;;;;;;;;5076438;28;20627;-79
2022/04/15 09:06:38;;;;;;;5.10;4.60;;;;;;;;;;5076337;28;20236;-79
2022/04/15 09:09:11;;;;;;;4.80;4.40;;;;;;;;;;5076353;28;20688;-78
2022/04/15 09:11:40;;;;;;;3.95;3.60;;;;;;;;;;5075803;28;20246;-79
2022/04/15 09:14:11;;;;;;;4.80;4.35;;;;;;;;;;5075655;28;20709;-79
2022/04/15 09:16:40;;;;;;;3.60;3.30;;;;;;;;;;5075922;28;20213;-79
2022/04/15 09:19:08;;;;;;;3.88;3.55;;;;;;;;;;5075348;28;20723;-79
2022/04/15 09:21:36;;;;;;;3.45;3.15;;;;;;;;;;5076489;28;20201;-80
2022/04/15 09:24:07;;;;;;;3.67;3.38;;;;;;;;;;5076014;28;20669;-80
2022/04/15 09:26:35;;;;;;;3.30;3.10;;;;;;;;;;5075860;28;20221;-79
2022/04/15 09:29:03;;;;;;;4.05;3.65;;;;;;;;;;5075759;28;20211;-79
2022/04/15 09:31:30;;;;;;;3.63;3.33;;;;;;;;;;5075750;28;20254;-79
2022/04/15 09:33:59;;;;;;;3.72;3.42;;;;;;;;;;5075294;28;20201;-80
2022/04/15 09:36:32;;;;;;;5.22;3.95;;;;;;;;;;5075298;28;20311;-78
2022/04/15 09:39:04;;;;;;;4.43;4.03;;;;;;;;;;5081214;28;20401;-78
2022/04/15 09:41:32;;;;;;;4.68;4.28;;;;;;;;;;5075615;28;20263;-77
2022/04/15 09:44:01;;;;;;;4.07;3.78;;;;;;;;;;5074941;28;20205;-78
2022/04/15 09:46:30;;;;;;;4.13;3.63;;;;;;;;;;5074310;28;20708;-79
2022/04/15 09:49:05;;;;;;;4.45;4.05;;;;;;;;;;5074610;28;20240;-78
2022/04/15 09:51:37;;;;;;;4.15;3.75;;;;;;;;;;5074857;28;20212;-79
2022/04/15 09:54:10;;;;;;;4.22;3.83;;;;;;;;;;5075298;28;20211;-79
2022/04/15 09:56:43;;;;;;;4.00;3.65;;;;;;;;;;5076372;28;20216;-78
2022/04/15 09:59:12;;;;;;;5.75;4.25;;;;;;;;;;5077013;28;20236;-79
2022/04/15 10:01:44;;;;;;;4.07;3.63;;;;;;;;;;5077089;28;20640;-79
2022/04/15 10:04:12;;;;;;;4.03;3.72;;;;;;;;;;5075587;28;20236;-79
2022/04/15 10:06:41;;;;;;;4.10;3.80;;;;;;;;;;5076122;28;20634;-80
2022/04/15 10:09:12;;;;;;;3.45;3.10;;;;;;;;;;5076018;28;20216;-79
2022/04/15 10:11:44;;;;;;;3.42;3.05;;;;;;;;;;5077063;28;20205;-80
2022/04/15 10:14:12;;;;;;;3.15;2.85;;;;;;;;;;5076465;28;20227;-79
2022/04/15 10:16:42;;;;;;;3.55;3.25;;;;;;;;;;5077291;28;20213;-79
2022/04/15 10:19:10;;;;;;;3.28;3.08;;;;;;;;;;5076338;28;20208;-79
2022/04/15 10:21:40;;;;;;;3.38;3.08;;;;;;;;;;5077152;28;20254;-80
2022/04/15 10:24:09;;;;;;;3.50;3.20;;;;;;;;;;5075681;28;20201;-78
2022/04/15 10:26:41;;;;;;;3.00;2.80;;;;;;;;;;5073999;28;20307;-79
2022/04/15 10:29:09;;;;;;;3.00;2.72;;;;;;;;;;5076845;28;20278;-79
2022/04/15 10:31:44;;;;;;;2.90;2.70;;;;;;;;;;5075652;28;20583;-79
2022/04/15 10:34:14;;;;;;;2.70;2.50;;;;;;;;;;5077909;28;20268;-79
2022/04/15 10:36:47;;;;;;;3.25;3.05;;;;;;;;;;5075314;28;20225;-80
2022/04/15 10:39:17;;;;;;;3.55;3.35;;;;;;;;;;5077754;28;20201;-79
2022/04/15 10:41:57;;;;;;;2.92;2.70;;;;;;;;;;5073283;28;20208;-80
2022/04/15 10:44:31;;;;;;;3.08;2.85;;;;;;;;;;5075473;28;20216;-81
2022/04/15 10:47:00;;;;;;;3.13;2.83;;;;;;;;;;5074959;28;20220;-82
2022/04/15 10:49:30;;;;;;;2.88;2.67;;;;;;;;;;5075559;28;20201;-79
2022/04/15 10:52:01;;;;;;;3.67;3.38;;;;;;;;;;5073793;28;20752;-79
2022/04/15 10:54:34;;;;;;;3.10;2.90;;;;;;;;;;5074500;28;20557;-82
2022/04/15 10:57:04;;;;;;;4.20;3.30;;;;;;;;;;5073898;28;20225;-80
2022/04/15 11:02:22;;;;;;;3.17;2.97;;;;;;;;;;5073854;28;20246;-79
2022/04/15 11:04:51;;;;;;;2.80;2.60;;;;;;;;;;5074566;28;20295;-80
2022/04/15 11:07:27;;;;;;;3.17;2.97;;;;;;;;;;5074508;28;20278;-81
2022/04/15 11:09:55;;;;;;;2.70;2.50;;;;;;;;;;5074535;28;20205;-80
2022/04/15 11:12:43;;;;;;;2.08;1.98;;;;;;;;;;5074010;28;20212;-80
2022/04/15 11:15:11;;;;;;;1.75;1.65;;;;;;;;;;5075783;28;20243;-81
2022/04/15 11:17:41;;;;;;;2.38;2.17;;;;;;;;;;5074440;28;20261;-79
2022/04/15 11:20:10;;;;;;;2.70;1.90;;;;;;;;;;5074772;28;20209;-79
2022/04/15 11:22:40;;;;;;;1.77;1.63;;;;;;;;;;5073712;28;20205;-81
2022/04/15 11:25:10;;;;;;;2.65;2.45;;;;;;;;;;5073556;28;20228;-79
2022/04/15 11:27:41;;;;;;;1.90;1.80;;;;;;;;;;5073495;28;20224;-80
2022/04/15 11:30:18;;;;;;;1.80;1.70;;;;;;;;;;5073144;28;20203;-80
2022/04/15 11:32:51;;;;;;;2.70;2.50;;;;;;;;;;5073423;28;20204;-80
2022/04/15 11:35:30;;;;;;;2.10;2.00;;;;;;;;;;5073306;28;20258;-80
2022/04/15 11:38:00;;;;;;;2.28;2.15;;;;;;;;;;5073609;28;20227;-80
2022/04/15 11:40:29;;;;;;;2.00;1.90;;;;;;;;;;5073449;28;20201;-80
2022/04/15 11:43:00;;;;;;;2.45;2.25;;;;;;;;;;5073028;28;20590;-80
2022/04/15 11:45:36;;;;;;;1.95;1.85;;;;;;;;;;5072896;28;20210;-80
2022/04/15 11:48:17;;;;;;;2.15;1.95;;;;;;;;;;5073139;28;20224;-80
2022/04/15 11:50:45;;;;;;;2.78;2.55;;;;;;;;;;5073438;28;20688;-80
2022/04/15 11:53:14;;;;;;;2.42;2.22;;;;;;;;;;5072634;28;20201;-80
2022/04/15 11:55:53;;;;;;;2.30;2.20;;;;;;;;;;5073116;28;20211;-80
2022/04/15 11:58:22;;;;;;;2.22;2.08;;;;;;;;;;5072908;28;20775;-80
2022/04/15 12:00:55;;;;;;;2.63;2.42;;;;;;;;;;5073378;28;20204;-80
2022/04/15 12:03:23;;;;;;;2.50;2.30;;;;;;;;;;5072969;28;20204;-80
2022/04/15 12:05:51;;;;;;;2.58;2.22;;;;;;;;;;5073942;28;20673;-80
2022/04/15 12:08:19;;;;;;;2.83;2.63;;;;;;;;;;5073773;28;20293;-79
2022/04/15 12:10:48;;;;;;;3.20;3.00;;;;;;;;;;5073746;28;20219;-79
2022/04/15 12:13:16;;;;;;;3.42;3.13;;;;;;;;;;5074220;28;20227;-80
2022/04/15 12:15:45;;;;;;;2.80;2.60;;;;;;;;;;5074108;28;20205;-81
2022/04/15 12:18:14;;;;;;;2.80;2.60;;;;;;;;;;5074024;28;20266;-80
2022/04/15 12:20:43;;;;;;;2.20;2.10;;;;;;;;;;5073842;28;20209;-80
2022/04/15 12:23:15;;;;;;;2.20;2.10;;;;;;;;;;5073993;28;20298;-80
2022/04/15 12:31:31;;;;;;;2.72;2.53;;;;;;;;;;5072418;28;20201;-79
2022/04/15 12:33:59;;;;;;;2.75;2.50;;;;;;;;;;5072979;28;20228;-80
2022/04/15 12:36:30;;;;;;;2.25;2.15;;;;;;;;;;5072568;28;20588;-79
2022/04/15 12:39:02;;;;;;;2.80;2.60;;;;;;;;;;5072720;28;20340;-79
2022/04/15 12:41:46;;;;;;;3.00;2.80;;;;;;;;;;5072345;28;20270;-79
2022/04/15 12:44:19;;;;;;;3.05;2.85;;;;;;;;;;5072315;28;20311;-79
2022/04/15 12:46:49;;;;;;;2.10;2.00;;;;;;;;;;5072507;28;20221;-80
2022/04/15 12:49:34;;;;;;;2.50;2.30;;;;;;;;;;5073634;28;20223;-80
2022/04/15 12:52:11;;;;;;;2.78;2.58;;;;;;;;;;5076618;28;20254;-79
2022/04/15 12:54:58;;;;;;;2.72;2.50;;;;;;;;;;5076961;28;20204;-80
2022/04/15 12:57:30;;;;;;;2.53;2.35;;;;;;;;;;5076496;28;20220;-79
2022/04/15 12:59:57;;;;;;;3.25;2.63;;;;;;;;;;5076404;28;20292;-79
2022/04/15 13:02:28;;;;;;;2.75;2.55;;;;;;;;;;5076334;28;20197;-79
2022/04/15 13:04:56;;;;;;;2.80;2.60;;;;;;;;;;5076597;28;20197;-80
2022/04/15 13:07:23;;;;;;;2.97;2.78;;;;;;;;;;5076130;28;20648;-80
2022/04/15 13:09:52;;;;;;;2.53;2.33;;;;;;;;;;5075744;28;20225;-79
2022/04/15 13:12:20;;;;;;;3.05;2.85;;;;;;;;;;5075995;28;20258;-79
2022/04/15 13:14:48;;;;;;;2.80;2.60;;;;;;;;;;5075297;28;20213;-79
2022/04/15 13:17:16;;;;;;;2.70;2.50;;;;;;;;;;5075600;28;20625;-79
2022/04/15 13:19:45;;;;;;;1.90;1.80;;;;;;;;;;5076203;28;20220;-80
2022/04/15 13:22:13;;;;;;;2.33;2.22;;;;;;;;;;5075435;28;20208;-77
2022/04/15 13:24:41;;;;;;;2.45;2.33;;;;;;;;;;5074899;28;20580;-79
2022/04/15 13:27:09;;;;;;;2.85;2.65;;;;;;;;;;5073951;28;20278;-79
2022/04/15 13:29:37;;;;;;;2.67;2.47;;;;;;;;;;5075411;28;20307;-79
2022/04/15 13:32:06;;;;;;;2.55;2.35;;;;;;;;;;5074835;28;20201;-79
2022/04/15 13:34:34;;;;;;;2.30;2.20;;;;;;;;;;5074927;28;20200;-79
2022/04/15 13:37:04;;;;;;;3.40;2.42;;;;;;;;;;5074974;28;20602;-79
2022/04/15 13:39:36;;;;;;;2.88;2.63;;;;;;;;;;5080355;22;20221;-86
2022/04/15 13:42:04;;;;;;;2.85;2.65;;;;;;;;;;5068679;28;20190;-86
2022/04/15 13:44:32;;;;;;;3.13;2.92;;;;;;;;;;5054911;28;20662;-87
2022/04/15 13:46:59;;;;;;;2.95;2.75;;;;;;;;;;5055338;28;20206;-86
2022/04/15 13:49:27;;;;;;;2.88;2.67;;;;;;;;;;5055299;28;20226;-87
2022/04/15 13:51:54;;;;;;;2.63;2.42;;;;;;;;;;5054922;28;20209;-86
2022/04/15 13:57:08;;;;;;;2.50;2.30;;;;;;;;;;5055003;28;20660;-85
2022/04/15 13:59:36;;;;;;;2.47;2.25;;;;;;;;;;5055017;28;20247;-86
2022/04/15 14:02:07;;;;;;;2.25;2.10;;;;;;;;;;5054989;28;20205;-86
2022/04/15 14:04:35;;;;;;;2.30;2.13;;;;;;;;;;5054942;28;20245;-85
2022/04/15 14:07:03;;;;;;;2.70;2.33;;;;;;;;;;5054859;28;20202;-87
2022/04/15 14:09:31;;;;;;;2.60;2.40;;;;;;;;;;5054537;28;20244;-85
2022/04/15 14:11:58;;;;;;;2.10;2.00;;;;;;;;;;5055111;28;20201;-86
2022/04/15 14:14:26;;;;;;;2.22;2.03;;;;;;;;;;5054331;28;20206;-85
2022/04/15 14:16:53;;;;;;;2.10;2.00;;;;;;;;;;5055600;28;20201;-86
2022/04/15 14:19:20;;;;;;;2.65;2.47;;;;;;;;;;5055132;28;20694;-84
2022/04/15 14:21:48;;;;;;;2.67;2.47;;;;;;;;;;5054639;28;20650;-85
2022/04/15 14:24:15;;;;;;;2.63;2.42;;;;;;;;;;5054542;28;20540;-85
2022/04/15 14:26:44;;;;;;;2.88;2.67;;;;;;;;;;5054683;28;20227;-86
2022/04/15 14:29:11;;;;;;;2.50;2.30;;;;;;;;;;5056817;28;20206;-86
2022/04/15 14:31:38;;;;;;;2.78;2.53;;;;;;;;;;5055723;28;20581;-88
2022/04/15 14:34:06;;;;;;;2.58;2.47;;;;;;;;;;5054412;28;20205;-86
2022/04/15 14:36:33;;;;;;;2.45;2.25;;;;;;;;;;5054702;28;20214;-87
2022/04/15 14:39:01;;;;;;;3.45;3.15;;;;;;;;;;5057711;28;20635;-84
2022/04/15 14:41:28;;;;;;;2.53;2.33;;;;;;;;;;5059629;28;20546;-83
2022/04/15 14:43:57;;;;;;;2.83;2.63;;;;;;;;;;5057943;28;20197;-84
2022/04/15 14:46:24;;;;;;;2.80;2.50;;;;;;;;;;5057694;28;20717;-83
2022/04/15 14:48:54;;;;;;;2.97;2.78;;;;;;;;;;5058572;28;20194;-85
2022/04/15 14:51:22;;;;;;;3.20;2.90;;;;;;;;;;5058049;28;20210;-85
2022/04/15 14:53:52;;;;;;;3.17;2.97;;;;;;;;;;5056642;28;20190;-84
2022/04/15 14:56:19;;;;;;;2.80;2.60;;;;;;;;;;5055184;28;20213;-84
2022/04/15 14:58:47;;;;;;;2.63;2.50;;;;;;;;;;5057284;28;20209;-84
2022/04/15 15:01:16;;;;;;;3.13;2.70;;;;;;;;;;5058850;28;20559;-85
2022/04/15 15:03:43;;;;;;;2.90;2.70;;;;;;;;;;5058989;28;20205;-84
2022/04/15 15:06:10;;;;;;;3.30;2.97;;;;;;;;;;5058695;28;20241;-84